CST,Max TemperatureF,Mean TemperatureF,Min TemperatureF,Max Dew PointF,MeanDew PointF,Min DewpointF,Max Humidity, Mean Humidity, Min Humidity, Max Sea Level PressureIn, Mean Sea Level PressureIn, Min Sea Level PressureIn, Max VisibilityMiles, Mean VisibilityMiles, Min VisibilityMiles, Max Wind SpeedMPH, Mean Wind SpeedMPH, Max Gust SpeedMPH,PrecipitationIn, CloudCover, Events, WindDirDegrees
2013-2-1,15,2,-7,9,-10,-16,77,67,57,30.38,30.30,30.05,10,10,4,18,11,24,0.00,1,Snow,255
2013-2-2,20,16,12,14,9,5,88,77,67,30.15,30.07,29.97,10,9,2,17,7,23,0.00,6,Snow,248
2013-2-3,22,17,12,16,11,5,88,76,66,30.13,30.01,29.88,10,10,10,23,9,30,0.00,3,,236
2013-2-4,23,16,10,16,11,5,84,76,66,29.99,29.94,29.81,10,10,7,14,8,18,0.00,2,,27
2013-2-5,34,24,15,27,19,11,85,78,66,30.12,29.91,29.79,10,9,4,18,9,24,0.00,3,Snow,273
2013-2-6,37,24,10,31,21,8,91,81,72,30.16,30.07,29.96,10,8,3,15,5,22,0.00,0,,166
2013-2-7,34,30,27,33,29,23,95,88,79,30.16,29.98,29.92,10,5,0,20,8,25,0.09,6,Rain,18
2013-2-8,27,27,27,23,22,20,84,80,73,30.37,30.30,30.16,10,10,10,17,10,22,0.00,8,,52
2013-2-9,30,28,27,26,24,23,87,83,79,30.31,30.15,29.95,10,9,7,16,13,25,0.00,7,,155
2013-2-10,43,36,30,40,32,26,94,87,69,29.95,29.54,29.30,10,6,2,30,14,40,0.07,7,Rain-Snow,169
2013-2-11,32,27,22,25,19,16,77,71,66,30.10,29.86,29.49,10,10,7,33,23,47,0.00,7,Snow,289
2013-2-12,37,29,21,25,20,14,84,70,54,30.13,30.02,29.85,10,10,10,23,11,31,0.00,3,,228
2013-2-13,40,31,22,30,26,20,90,76,59,29.86,29.76,29.64,10,10,7,13,6,,0.00,1,,254
2013-2-14,38,30,21,29,25,6,91,74,50,30.12,29.86,29.65,10,9,2,20,13,32,0.00,5,Snow,301
2013-2-15,26,20,15,14,8,3,78,61,46,30.28,30.25,30.13,10,10,10,17,12,24,0.00,1,,323
2013-2-16,24,17,10,13,9,3,85,74,61,30.28,30.20,30.14,10,10,2,10,6,16,0.00,2,Snow,312
2013-2-17,34,23,12,22,15,9,84,68,50,30.15,30.00,29.74,10,10,10,22,10,29,0.00,1,,150
2013-2-18,41,26,12,31,22,3,87,72,58,29.82,29.65,29.56,10,10,4,31,16,44,0.00,3,Rain-Snow,255
2013-2-19,16,8,1,2,-2,-8,74,63,51,30.33,30.08,29.83,10,10,5,30,23,40,0.00,2,Snow,313
2013-2-20,25,12,-1,10,1,-8,77,64,43,30.44,30.37,30.33,10,10,7,12,7,,0.00,0,,4
2013-2-21,25,18,10,20,13,5,90,76,62,30.37,30.18,29.90,10,8,0,25,11,32,0.00,4,Snow,83
2013-2-22,29,24,19,23,19,14,90,82,74,29.95,29.86,29.78,10,6,1,16,10,22,0.02,7,Snow,293
2013-2-23,25,16,7,16,12,4,90,77,62,29.99,29.95,29.93,10,9,2,14,7,18,0.00,2,Snow,269
2013-2-24,32,16,0,22,11,-5,87,77,58,30.11,30.06,29.98,10,6,0,9,2,,0.00,0,Fog,109
2013-2-25,36,26,17,27,22,14,90,80,64,30.12,30.06,29.93,10,6,4,13,4,,0.00,0,,65
2013-2-26,32,30,28,28,25,22,92,82,71,29.92,29.76,29.66,10,5,0,29,14,36,0.00,4,Snow,24
2013-2-27,32,30,27,28,26,24,92,86,80,29.90,29.79,29.72,10,5,1,16,12,23,0.00,7,Snow,342
2013-2-28,32,28,25,26,22,20,85,77,67,30.14,30.05,29.91,10,9,4,16,11,22,0.00,5,Snow,342